sensor_id;sensor_type;location;lat;lon;timestamp;P1;durP1;ratioP1;P2;durP2;ratioP2
39994;SDS011;25686;51.908;10.418;2023-06-14T00:01:45;3.63;;;2.67;;
39994;SDS011;25686;51.908;10.418;2023-06-14T00:03:46;5.07;;;3.10;;
39994;SDS011;25686;51.908;10.418;2023-06-14T00:05:47;5.07;;;2.72;;
39994;SDS011;25686;51.908;10.418;2023-06-14T00:07:48;4.75;;;2.80;;
39994;SDS011;25686;51.908;10.418;2023-06-14T00:09:53;8.68;;;3.00;;
39994;SDS011;25686;51.908;10.418;2023-06-14T00:11:54;6.30;;;3.20;;
39994;SDS011;25686;51.908;10.418;2023-06-14T00:13:55;5.63;;;3.00;;
39994;SDS011;25686;51.908;10.418;2023-06-14T00:15:56;3.70;;;2.63;;
39994;SDS011;25686;51.908;10.418;2023-06-14T00:17:57;3.85;;;2.75;;
39994;SDS011;25686;51.908;10.418;2023-06-14T00:20:02;4.45;;;2.70;;
39994;SDS011;25686;51.908;10.418;2023-06-14T00:22:04;4.28;;;3.17;;
39994;SDS011;25686;51.908;10.418;2023-06-14T00:24:07;8.05;;;2.55;;
39994;SDS011;25686;51.908;10.418;2023-06-14T00:26:08;5.90;;;2.75;;
39994;SDS011;25686;51.908;10.418;2023-06-14T00:28:09;7.28;;;3.05;;
39994;SDS011;25686;51.908;10.418;2023-06-14T00:30:10;3.60;;;2.75;;
39994;SDS011;25686;51.908;10.418;2023-06-14T00:32:11;5.22;;;2.97;;
39994;SDS011;25686;51.908;10.418;2023-06-14T00:34:12;6.85;;;3.00;;
39994;SDS011;25686;51.908;10.418;2023-06-14T00:36:13;7.35;;;3.10;;
39994;SDS011;25686;51.908;10.418;2023-06-14T00:38:14;7.55;;;2.67;;
39994;SDS011;25686;51.908;10.418;2023-06-14T00:40:15;6.28;;;2.83;;
39994;SDS011;25686;51.908;10.418;2023-06-14T00:42:25;5.85;;;3.08;;
39994;SDS011;25686;51.908;10.418;2023-06-14T00:44:26;6.15;;;2.80;;
39994;SDS011;25686;51.908;10.418;2023-06-14T00:46:27;5.45;;;3.00;;
39994;SDS011;25686;51.908;10.418;2023-06-14T00:48:28;4.47;;;2.90;;
39994;SDS011;25686;51.908;10.418;2023-06-14T00:50:30;6.30;;;2.85;;
39994;SDS011;25686;51.908;10.418;2023-06-14T00:52:33;10.48;;;3.40;;
39994;SDS011;25686;51.908;10.418;2023-06-14T00:54:34;3.78;;;2.80;;
39994;SDS011;25686;51.908;10.418;2023-06-14T00:56:36;5.05;;;2.75;;
39994;SDS011;25686;51.908;10.418;2023-06-14T00:58:37;9.52;;;3.20;;
39994;SDS011;25686;51.908;10.418;2023-06-14T01:00:38;4.10;;;2.75;;
39994;SDS011;25686;51.908;10.418;2023-06-14T01:02:38;9.02;;;3.35;;
39994;SDS011;25686;51.908;10.418;2023-06-14T01:04:40;13.57;;;3.03;;
39994;SDS011;25686;51.908;10.418;2023-06-14T01:06:45;4.15;;;3.00;;
39994;SDS011;25686;51.908;10.418;2023-06-14T01:08:51;6.72;;;2.63;;
39994;SDS011;25686;51.908;10.418;2023-06-14T01:10:56;3.95;;;2.70;;
39994;SDS011;25686;51.908;10.418;2023-06-14T01:13:12;5.00;;;3.22;;
39994;SDS011;25686;51.908;10.418;2023-06-14T01:15:13;7.63;;;3.00;;
39994;SDS011;25686;51.908;10.418;2023-06-14T01:17:15;5.38;;;3.13;;
39994;SDS011;25686;51.908;10.418;2023-06-14T01:19:16;5.07;;;3.10;;
39994;SDS011;25686;51.908;10.418;2023-06-14T01:21:21;5.60;;;2.53;;
39994;SDS011;25686;51.908;10.418;2023-06-14T01:23:22;5.28;;;2.90;;
39994;SDS011;25686;51.908;10.418;2023-06-14T01:25:24;6.05;;;3.03;;
39994;SDS011;25686;51.908;10.418;2023-06-14T01:27:25;8.40;;;2.67;;
39994;SDS011;25686;51.908;10.418;2023-06-14T01:29:29;3.65;;;2.78;;
39994;SDS011;25686;51.908;10.418;2023-06-14T01:31:33;4.80;;;2.67;;
39994;SDS011;25686;51.908;10.418;2023-06-14T01:33:41;5.60;;;2.85;;
39994;SDS011;25686;51.908;10.418;2023-06-14T01:35:49;5.28;;;2.60;;
39994;SDS011;25686;51.908;10.418;2023-06-14T01:37:50;5.85;;;3.05;;
39994;SDS011;25686;51.908;10.418;2023-06-14T01:39:52;7.07;;;2.83;;
39994;SDS011;25686;51.908;10.418;2023-06-14T01:41:53;4.78;;;2.88;;
39994;SDS011;25686;51.908;10.418;2023-06-14T01:43:54;6.35;;;3.20;;
39994;SDS011;25686;51.908;10.418;2023-06-14T01:45:55;6.93;;;2.70;;
39994;SDS011;25686;51.908;10.418;2023-06-14T01:47:57;6.35;;;2.90;;
39994;SDS011;25686;51.908;10.418;2023-06-14T01:49:58;5.55;;;2.85;;
39994;SDS011;25686;51.908;10.418;2023-06-14T01:51:59;5.13;;;2.83;;
39994;SDS011;25686;51.908;10.418;2023-06-14T01:54:00;5.72;;;2.63;;
39994;SDS011;25686;51.908;10.418;2023-06-14T01:56:01;4.18;;;2.85;;
39994;SDS011;25686;51.908;10.418;2023-06-14T01:58:04;5.40;;;2.70;;
39994;SDS011;25686;51.908;10.418;2023-06-14T02:00:05;5.97;;;3.13;;
39994;SDS011;25686;51.908;10.418;2023-06-14T02:02:10;4.38;;;2.70;;
39994;SDS011;25686;51.908;10.418;2023-06-14T02:04:11;3.80;;;2.67;;
39994;SDS011;25686;51.908;10.418;2023-06-14T02:06:12;6.53;;;2.90;;
39994;SDS011;25686;51.908;10.418;2023-06-14T02:08:13;4.50;;;2.72;;
39994;SDS011;25686;51.908;10.418;2023-06-14T02:10:14;3.70;;;2.80;;
39994;SDS011;25686;51.908;10.418;2023-06-14T02:12:17;6.53;;;3.03;;
39994;SDS011;25686;51.908;10.418;2023-06-14T02:14:18;4.80;;;2.60;;
39994;SDS011;25686;51.908;10.418;2023-06-14T02:16:19;5.75;;;2.75;;
39994;SDS011;25686;51.908;10.418;2023-06-14T02:18:20;5.10;;;3.10;;
39994;SDS011;25686;51.908;10.418;2023-06-14T02:20:21;4.82;;;2.80;;
39994;SDS011;25686;51.908;10.418;2023-06-14T02:22:22;4.90;;;2.88;;
39994;SDS011;25686;51.908;10.418;2023-06-14T02:24:23;4.60;;;2.90;;
39994;SDS011;25686;51.908;10.418;2023-06-14T02:26:24;5.03;;;2.88;;
39994;SDS011;25686;51.908;10.418;2023-06-14T02:28:28;3.97;;;2.70;;
39994;SDS011;25686;51.908;10.418;2023-06-14T02:30:29;4.95;;;2.70;;
39994;SDS011;25686;51.908;10.418;2023-06-14T02:32:30;6.97;;;3.20;;
39994;SDS011;25686;51.908;10.418;2023-06-14T02:34:34;3.83;;;2.72;;
39994;SDS011;25686;51.908;10.418;2023-06-14T02:36:35;5.70;;;2.78;;
39994;SDS011;25686;51.908;10.418;2023-06-14T02:38:41;5.35;;;2.90;;
39994;SDS011;25686;51.908;10.418;2023-06-14T02:40:42;5.35;;;3.05;;
39994;SDS011;25686;51.908;10.418;2023-06-14T02:42:43;3.95;;;2.90;;
39994;SDS011;25686;51.908;10.418;2023-06-14T02:44:44;7.05;;;3.55;;
39994;SDS011;25686;51.908;10.418;2023-06-14T02:46:46;4.88;;;2.90;;
39994;SDS011;25686;51.908;10.418;2023-06-14T02:48:47;7.78;;;3.17;;
39994;SDS011;25686;51.908;10.418;2023-06-14T02:50:48;5.88;;;3.28;;
39994;SDS011;25686;51.908;10.418;2023-06-14T02:52:50;11.13;;;3.47;;
39994;SDS011;25686;51.908;10.418;2023-06-14T02:54:52;6.07;;;3.00;;
39994;SDS011;25686;51.908;10.418;2023-06-14T02:56:54;6.50;;;3.08;;
39994;SDS011;25686;51.908;10.418;2023-06-14T02:58:55;4.40;;;3.10;;
39994;SDS011;25686;51.908;10.418;2023-06-14T03:00:55;6.93;;;3.22;;
39994;SDS011;25686;51.908;10.418;2023-06-14T03:02:56;5.35;;;3.30;;
39994;SDS011;25686;51.908;10.418;2023-06-14T03:04:57;4.10;;;3.17;;
39994;SDS011;25686;51.908;10.418;2023-06-14T03:07:01;5.43;;;3.03;;
39994;SDS011;25686;51.908;10.418;2023-06-14T03:09:03;4.28;;;2.70;;
39994;SDS011;25686;51.908;10.418;2023-06-14T03:11:09;4.30;;;2.80;;
39994;SDS011;25686;51.908;10.418;2023-06-14T03:13:10;4.43;;;2.55;;
39994;SDS011;25686;51.908;10.418;2023-06-14T03:15:12;4.55;;;3.13;;
39994;SDS011;25686;51.908;10.418;2023-06-14T03:17:17;9.30;;;2.95;;
39994;SDS011;25686;51.908;10.418;2023-06-14T03:19:19;3.95;;;2.92;;
39994;SDS011;25686;51.908;10.418;2023-06-14T03:21:20;5.20;;;2.97;;
39994;SDS011;25686;51.908;10.418;2023-06-14T03:23:21;7.82;;;2.70;;
39994;SDS011;25686;51.908;10.418;2023-06-14T03:25:22;4.82;;;3.08;;
39994;SDS011;25686;51.908;10.418;2023-06-14T03:27:23;5.63;;;3.20;;
39994;SDS011;25686;51.908;10.418;2023-06-14T03:29:24;5.72;;;2.97;;
39994;SDS011;25686;51.908;10.418;2023-06-14T03:31:25;3.20;;;2.83;;
39994;SDS011;25686;51.908;10.418;2023-06-14T03:33:27;4.50;;;2.78;;
39994;SDS011;25686;51.908;10.418;2023-06-14T03:35:28;6.32;;;2.85;;
39994;SDS011;25686;51.908;10.418;2023-06-14T03:37:29;5.60;;;3.53;;
39994;SDS011;25686;51.908;10.418;2023-06-14T03:39:30;6.00;;;2.80;;
39994;SDS011;25686;51.908;10.418;2023-06-14T03:41:31;4.35;;;2.83;;
39994;SDS011;25686;51.908;10.418;2023-06-14T03:43:32;5.25;;;2.90;;
39994;SDS011;25686;51.908;10.418;2023-06-14T03:45:34;4.10;;;2.97;;
39994;SDS011;25686;51.908;10.418;2023-06-14T03:47:35;4.97;;;2.95;;
39994;SDS011;25686;51.908;10.418;2023-06-14T03:49:36;5.50;;;2.75;;
39994;SDS011;25686;51.908;10.418;2023-06-14T03:51:37;3.80;;;2.78;;
39994;SDS011;25686;51.908;10.418;2023-06-14T03:53:38;4.65;;;3.03;;
39994;SDS011;25686;51.908;10.418;2023-06-14T03:55:39;4.68;;;2.65;;
39994;SDS011;25686;51.908;10.418;2023-06-14T03:57:41;7.75;;;3.00;;
39994;SDS011;25686;51.908;10.418;2023-06-14T03:59:42;5.38;;;2.95;;
39994;SDS011;25686;51.908;10.418;2023-06-14T04:01:43;7.53;;;2.90;;
39994;SDS011;25686;51.908;10.418;2023-06-14T04:03:45;5.32;;;2.60;;
39994;SDS011;25686;51.908;10.418;2023-06-14T04:05:46;7.20;;;3.03;;
39994;SDS011;25686;51.908;10.418;2023-06-14T04:07:49;9.00;;;2.88;;
39994;SDS011;25686;51.908;10.418;2023-06-14T04:09:50;6.53;;;3.00;;
39994;SDS011;25686;51.908;10.418;2023-06-14T04:11:51;5.22;;;3.15;;
39994;SDS011;25686;51.908;10.418;2023-06-14T04:13:52;6.38;;;3.10;;
39994;SDS011;25686;51.908;10.418;2023-06-14T04:15:56;7.72;;;2.78;;
39994;SDS011;25686;51.908;10.418;2023-06-14T04:17:57;6.35;;;2.90;;
39994;SDS011;25686;51.908;10.418;2023-06-14T04:19:58;6.43;;;2.90;;
39994;SDS011;25686;51.908;10.418;2023-06-14T04:21:59;7.63;;;3.20;;
39994;SDS011;25686;51.908;10.418;2023-06-14T04:24:02;5.47;;;3.60;;
39994;SDS011;25686;51.908;10.418;2023-06-14T04:26:03;7.10;;;3.10;;
39994;SDS011;25686;51.908;10.418;2023-06-14T04:28:04;4.00;;;3.03;;
39994;SDS011;25686;51.908;10.418;2023-06-14T04:30:05;9.25;;;5.00;;
39994;SDS011;25686;51.908;10.418;2023-06-14T04:32:07;6.60;;;5.82;;
39994;SDS011;25686;51.908;10.418;2023-06-14T04:34:10;14.05;;;10.02;;
39994;SDS011;25686;51.908;10.418;2023-06-14T04:36:16;12.38;;;10.00;;
39994;SDS011;25686;51.908;10.418;2023-06-14T04:38:17;15.23;;;10.52;;
39994;SDS011;25686;51.908;10.418;2023-06-14T04:40:18;11.43;;;6.63;;
39994;SDS011;25686;51.908;10.418;2023-06-14T04:42:19;7.45;;;5.68;;
39994;SDS011;25686;51.908;10.418;2023-06-14T04:44:20;5.15;;;4.05;;
39994;SDS011;25686;51.908;10.418;2023-06-14T04:46:24;7.35;;;3.78;;
39994;SDS011;25686;51.908;10.418;2023-06-14T04:48:25;8.43;;;3.45;;
39994;SDS011;25686;51.908;10.418;2023-06-14T04:50:26;4.55;;;2.88;;
39994;SDS011;25686;51.908;10.418;2023-06-14T04:52:29;5.72;;;3.13;;
39994;SDS011;25686;51.908;10.418;2023-06-14T04:54:31;5.30;;;3.28;;
39994;SDS011;25686;51.908;10.418;2023-06-14T04:56:33;10.82;;;3.50;;
39994;SDS011;25686;51.908;10.418;2023-06-14T04:58:34;7.60;;;3.50;;
39994;SDS011;25686;51.908;10.418;2023-06-14T05:00:35;5.60;;;3.03;;
39994;SDS011;25686;51.908;10.418;2023-06-14T05:02:37;8.30;;;2.67;;
39994;SDS011;25686;51.908;10.418;2023-06-14T05:04:38;9.75;;;2.60;;
39994;SDS011;25686;51.908;10.418;2023-06-14T05:06:42;7.60;;;3.08;;
39994;SDS011;25686;51.908;10.418;2023-06-14T05:08:48;6.45;;;3.17;;
39994;SDS011;25686;51.908;10.418;2023-06-14T05:10:49;7.50;;;2.85;;
39994;SDS011;25686;51.908;10.418;2023-06-14T05:12:51;4.45;;;2.65;;
39994;SDS011;25686;51.908;10.418;2023-06-14T05:14:52;4.63;;;3.10;;
39994;SDS011;25686;51.908;10.418;2023-06-14T05:16:53;4.70;;;2.92;;
39994;SDS011;25686;51.908;10.418;2023-06-14T05:18:54;6.70;;;2.97;;
39994;SDS011;25686;51.908;10.418;2023-06-14T05:20:55;4.72;;;3.05;;
39994;SDS011;25686;51.908;10.418;2023-06-14T05:22:56;7.30;;;2.97;;
39994;SDS011;25686;51.908;10.418;2023-06-14T05:24:57;4.90;;;3.25;;
39994;SDS011;25686;51.908;10.418;2023-06-14T05:26:58;6.25;;;3.25;;
39994;SDS011;25686;51.908;10.418;2023-06-14T05:28:59;4.40;;;3.05;;
39994;SDS011;25686;51.908;10.418;2023-06-14T05:31:01;4.03;;;3.15;;
39994;SDS011;25686;51.908;10.418;2023-06-14T05:33:02;9.43;;;3.70;;
39994;SDS011;25686;51.908;10.418;2023-06-14T05:35:04;6.60;;;3.28;;
39994;SDS011;25686;51.908;10.418;2023-06-14T05:37:05;7.22;;;3.20;;
39994;SDS011;25686;51.908;10.418;2023-06-14T05:39:06;7.25;;;3.20;;
39994;SDS011;25686;51.908;10.418;2023-06-14T05:41:08;5.57;;;3.00;;
39994;SDS011;25686;51.908;10.418;2023-06-14T05:43:09;7.97;;;3.53;;
39994;SDS011;25686;51.908;10.418;2023-06-14T05:45:10;6.22;;;3.40;;
39994;SDS011;25686;51.908;10.418;2023-06-14T05:47:11;6.80;;;3.40;;
39994;SDS011;25686;51.908;10.418;2023-06-14T05:49:12;5.40;;;3.55;;
39994;SDS011;25686;51.908;10.418;2023-06-14T05:51:13;5.28;;;3.38;;
39994;SDS011;25686;51.908;10.418;2023-06-14T05:53:14;5.55;;;3.40;;
39994;SDS011;25686;51.908;10.418;2023-06-14T05:55:16;4.68;;;3.47;;
39994;SDS011;25686;51.908;10.418;2023-06-14T05:57:17;6.75;;;3.78;;
39994;SDS011;25686;51.908;10.418;2023-06-14T05:59:18;6.22;;;3.58;;
39994;SDS011;25686;51.908;10.418;2023-06-14T06:01:19;7.05;;;3.05;;
39994;SDS011;25686;51.908;10.418;2023-06-14T06:03:20;7.05;;;3.60;;
39994;SDS011;25686;51.908;10.418;2023-06-14T06:05:21;12.07;;;3.22;;
39994;SDS011;25686;51.908;10.418;2023-06-14T06:07:22;10.25;;;3.35;;
39994;SDS011;25686;51.908;10.418;2023-06-14T06:09:22;6.07;;;3.03;;
39994;SDS011;25686;51.908;10.418;2023-06-14T06:11:23;6.90;;;3.50;;
39994;SDS011;25686;51.908;10.418;2023-06-14T06:13:24;7.80;;;3.33;;
39994;SDS011;25686;51.908;10.418;2023-06-14T06:15:25;7.00;;;3.67;;
39994;SDS011;25686;51.908;10.418;2023-06-14T06:17:26;5.35;;;3.45;;
39994;SDS011;25686;51.908;10.418;2023-06-14T06:19:27;7.18;;;3.80;;
39994;SDS011;25686;51.908;10.418;2023-06-14T06:21:28;4.88;;;3.50;;
39994;SDS011;25686;51.908;10.418;2023-06-14T06:23:29;4.53;;;3.45;;
39994;SDS011;25686;51.908;10.418;2023-06-14T06:25:30;5.03;;;3.40;;
39994;SDS011;25686;51.908;10.418;2023-06-14T06:27:31;6.13;;;3.40;;
39994;SDS011;25686;51.908;10.418;2023-06-14T06:29:32;4.55;;;3.40;;
39994;SDS011;25686;51.908;10.418;2023-06-14T06:31:33;4.63;;;3.30;;
39994;SDS011;25686;51.908;10.418;2023-06-14T06:33:34;7.82;;;3.28;;
39994;SDS011;25686;51.908;10.418;2023-06-14T06:35:35;5.22;;;3.15;;
39994;SDS011;25686;51.908;10.418;2023-06-14T06:37:36;7.03;;;3.65;;
39994;SDS011;25686;51.908;10.418;2023-06-14T06:39:37;4.35;;;3.38;;
39994;SDS011;25686;51.908;10.418;2023-06-14T06:41:38;5.85;;;4.03;;
39994;SDS011;25686;51.908;10.418;2023-06-14T06:43:39;5.72;;;3.38;;
39994;SDS011;25686;51.908;10.418;2023-06-14T06:45:40;6.63;;;3.30;;
39994;SDS011;25686;51.908;10.418;2023-06-14T06:47:41;5.07;;;3.10;;
39994;SDS011;25686;51.908;10.418;2023-06-14T06:49:42;4.30;;;3.65;;
39994;SDS011;25686;51.908;10.418;2023-06-14T06:51:44;4.57;;;3.40;;
39994;SDS011;25686;51.908;10.418;2023-06-14T06:53:59;5.53;;;3.47;;
39994;SDS011;25686;51.908;10.418;2023-06-14T06:56:00;3.78;;;3.30;;
39994;SDS011;25686;51.908;10.418;2023-06-14T06:58:01;6.93;;;3.28;;
39994;SDS011;25686;51.908;10.418;2023-06-14T07:00:04;6.20;;;3.30;;
39994;SDS011;25686;51.908;10.418;2023-06-14T07:02:08;5.03;;;3.60;;
39994;SDS011;25686;51.908;10.418;2023-06-14T07:04:09;5.30;;;3.97;;
39994;SDS011;25686;51.908;10.418;2023-06-14T07:06:10;6.57;;;3.75;;
39994;SDS011;25686;51.908;10.418;2023-06-14T07:08:11;4.15;;;3.33;;
39994;SDS011;25686;51.908;10.418;2023-06-14T07:10:12;4.25;;;3.33;;
39994;SDS011;25686;51.908;10.418;2023-06-14T07:12:13;9.07;;;4.03;;
39994;SDS011;25686;51.908;10.418;2023-06-14T07:14:14;7.93;;;3.47;;
39994;SDS011;25686;51.908;10.418;2023-06-14T07:16:15;7.05;;;3.58;;
39994;SDS011;25686;51.908;10.418;2023-06-14T07:18:16;4.78;;;3.00;;
39994;SDS011;25686;51.908;10.418;2023-06-14T07:20:17;8.23;;;3.60;;
39994;SDS011;25686;51.908;10.418;2023-06-14T07:22:18;5.97;;;4.00;;
39994;SDS011;25686;51.908;10.418;2023-06-14T07:24:19;4.95;;;3.55;;
39994;SDS011;25686;51.908;10.418;2023-06-14T07:26:21;7.13;;;3.65;;
39994;SDS011;25686;51.908;10.418;2023-06-14T07:28:22;5.30;;;3.70;;
39994;SDS011;25686;51.908;10.418;2023-06-14T07:30:23;7.80;;;3.72;;
39994;SDS011;25686;51.908;10.418;2023-06-14T07:32:25;4.30;;;3.58;;
39994;SDS011;25686;51.908;10.418;2023-06-14T07:34:26;5.53;;;3.55;;
39994;SDS011;25686;51.908;10.418;2023-06-14T07:36:27;4.53;;;3.45;;
39994;SDS011;25686;51.908;10.418;2023-06-14T07:38:28;5.80;;;3.58;;
39994;SDS011;25686;51.908;10.418;2023-06-14T07:40:29;5.75;;;3.58;;
39994;SDS011;25686;51.908;10.418;2023-06-14T07:42:30;3.70;;;3.40;;
39994;SDS011;25686;51.908;10.418;2023-06-14T07:44:31;3.88;;;3.40;;
39994;SDS011;25686;51.908;10.418;2023-06-14T07:46:32;8.90;;;3.80;;
39994;SDS011;25686;51.908;10.418;2023-06-14T07:48:34;4.15;;;3.40;;
39994;SDS011;25686;51.908;10.418;2023-06-14T07:50:35;4.13;;;2.88;;
39994;SDS011;25686;51.908;10.418;2023-06-14T07:52:36;3.08;;;2.67;;
39994;SDS011;25686;51.908;10.418;2023-06-14T07:54:37;3.92;;;3.42;;
39994;SDS011;25686;51.908;10.418;2023-06-14T07:56:38;3.63;;;2.90;;
39994;SDS011;25686;51.908;10.418;2023-06-14T07:58:39;3.10;;;2.78;;
39994;SDS011;25686;51.908;10.418;2023-06-14T08:00:40;3.38;;;3.00;;
39994;SDS011;25686;51.908;10.418;2023-06-14T08:02:41;6.18;;;3.47;;
39994;SDS011;25686;51.908;10.418;2023-06-14T08:04:42;2.97;;;2.67;;
39994;SDS011;25686;51.908;10.418;2023-06-14T08:06:43;3.00;;;2.70;;
39994;SDS011;25686;51.908;10.418;2023-06-14T08:08:45;3.55;;;2.97;;
39994;SDS011;25686;51.908;10.418;2023-06-14T08:10:46;6.72;;;3.28;;
39994;SDS011;25686;51.908;10.418;2023-06-14T08:12:47;3.20;;;2.90;;
39994;SDS011;25686;51.908;10.418;2023-06-14T08:14:50;3.30;;;2.90;;
39994;SDS011;25686;51.908;10.418;2023-06-14T08:16:51;6.13;;;2.95;;
39994;SDS011;25686;51.908;10.418;2023-06-14T08:18:52;3.25;;;2.95;;
39994;SDS011;25686;51.908;10.418;2023-06-14T08:20:53;3.38;;;2.53;;
39994;SDS011;25686;51.908;10.418;2023-06-14T08:22:54;3.25;;;2.88;;
39994;SDS011;25686;51.908;10.418;2023-06-14T08:24:56;5.30;;;2.92;;
39994;SDS011;25686;51.908;10.418;2023-06-14T08:26:57;3.63;;;3.08;;
39994;SDS011;25686;51.908;10.418;2023-06-14T08:29:00;2.72;;;2.53;;
39994;SDS011;25686;51.908;10.418;2023-06-14T08:31:01;3.17;;;2.88;;
39994;SDS011;25686;51.908;10.418;2023-06-14T08:33:02;3.55;;;2.97;;
39994;SDS011;25686;51.908;10.418;2023-06-14T08:35:04;5.20;;;2.78;;
39994;SDS011;25686;51.908;10.418;2023-06-14T08:37:05;3.30;;;2.47;;
39994;SDS011;25686;51.908;10.418;2023-06-14T08:39:06;4.45;;;2.60;;
39994;SDS011;25686;51.908;10.418;2023-06-14T08:41:09;4.43;;;2.80;;
39994;SDS011;25686;51.908;10.418;2023-06-14T08:43:13;3.08;;;2.78;;
39994;SDS011;25686;51.908;10.418;2023-06-14T08:45:14;5.47;;;3.13;;
39994;SDS011;25686;51.908;10.418;2023-06-14T08:47:15;5.97;;;3.33;;
39994;SDS011;25686;51.908;10.418;2023-06-14T08:49:18;4.28;;;2.95;;
39994;SDS011;25686;51.908;10.418;2023-06-14T08:51:21;3.45;;;2.40;;
39994;SDS011;25686;51.908;10.418;2023-06-14T08:53:23;3.47;;;2.35;;
39994;SDS011;25686;51.908;10.418;2023-06-14T08:55:24;4.78;;;2.47;;
39994;SDS011;25686;51.908;10.418;2023-06-14T08:57:26;7.00;;;2.70;;
39994;SDS011;25686;51.908;10.418;2023-06-14T08:59:30;4.63;;;2.63;;
39994;SDS011;25686;51.908;10.418;2023-06-14T09:01:34;2.88;;;2.47;;
39994;SDS011;25686;51.908;10.418;2023-06-14T09:03:35;4.72;;;2.90;;
39994;SDS011;25686;51.908;10.418;2023-06-14T09:05:40;3.40;;;2.50;;
39994;SDS011;25686;51.908;10.418;2023-06-14T09:07:41;5.90;;;2.53;;
39994;SDS011;25686;51.908;10.418;2023-06-14T09:09:43;8.85;;;2.75;;
39994;SDS011;25686;51.908;10.418;2023-06-14T09:11:44;3.88;;;2.65;;
39994;SDS011;25686;51.908;10.418;2023-06-14T09:13:45;2.50;;;2.30;;
39994;SDS011;25686;51.908;10.418;2023-06-14T09:15:47;5.97;;;2.90;;
39994;SDS011;25686;51.908;10.418;2023-06-14T09:17:48;3.92;;;2.90;;
39994;SDS011;25686;51.908;10.418;2023-06-14T09:19:49;4.55;;;2.40;;
39994;SDS011;25686;51.908;10.418;2023-06-14T09:21:50;4.93;;;2.35;;
39994;SDS011;25686;51.908;10.418;2023-06-14T09:23:52;4.65;;;2.67;;
39994;SDS011;25686;51.908;10.418;2023-06-14T09:25:53;3.10;;;2.80;;
39994;SDS011;25686;51.908;10.418;2023-06-14T09:27:55;2.72;;;2.38;;
39994;SDS011;25686;51.908;10.418;2023-06-14T09:29:55;4.90;;;2.22;;
39994;SDS011;25686;51.908;10.418;2023-06-14T09:31:56;3.30;;;2.35;;
39994;SDS011;25686;51.908;10.418;2023-06-14T09:33:58;3.03;;;2.08;;
39994;SDS011;25686;51.908;10.418;2023-06-14T09:35:59;10.82;;;2.35;;
39994;SDS011;25686;51.908;10.418;2023-06-14T09:38:00;2.53;;;2.30;;
39994;SDS011;25686;51.908;10.418;2023-06-14T09:40:01;2.40;;;2.20;;
39994;SDS011;25686;51.908;10.418;2023-06-14T09:42:04;2.33;;;2.13;;
39994;SDS011;25686;51.908;10.418;2023-06-14T09:44:18;2.72;;;2.00;;
39994;SDS011;25686;51.908;10.418;2023-06-14T09:46:20;2.40;;;2.20;;
39994;SDS011;25686;51.908;10.418;2023-06-14T09:48:21;5.60;;;2.45;;
39994;SDS011;25686;51.908;10.418;2023-06-14T09:50:22;2.65;;;2.40;;
39994;SDS011;25686;51.908;10.418;2023-06-14T09:52:23;3.00;;;2.42;;
39994;SDS011;25686;51.908;10.418;2023-06-14T09:54:26;2.50;;;2.30;;
39994;SDS011;25686;51.908;10.418;2023-06-14T09:56:28;2.88;;;2.10;;
39994;SDS011;25686;51.908;10.418;2023-06-14T09:58:30;3.55;;;2.10;;
39994;SDS011;25686;51.908;10.418;2023-06-14T10:00:31;2.88;;;2.10;;
39994;SDS011;25686;51.908;10.418;2023-06-14T10:02:36;4.65;;;1.70;;
39994;SDS011;25686;51.908;10.418;2023-06-14T10:04:38;2.30;;;2.10;;
39994;SDS011;25686;51.908;10.418;2023-06-14T10:06:40;4.93;;;2.20;;
39994;SDS011;25686;51.908;10.418;2023-06-14T10:08:42;2.30;;;2.00;;
39994;SDS011;25686;51.908;10.418;2023-06-14T10:10:44;2.58;;;2.30;;
39994;SDS011;25686;51.908;10.418;2023-06-14T10:12:46;2.13;;;2.00;;
39994;SDS011;25686;51.908;10.418;2023-06-14T10:14:48;4.72;;;2.08;;
39994;SDS011;25686;51.908;10.418;2023-06-14T10:16:52;3.67;;;2.10;;
39994;SDS011;25686;51.908;10.418;2023-06-14T10:19:06;2.88;;;2.00;;
39994;SDS011;25686;51.908;10.418;2023-06-14T10:23:21;2.30;;;1.80;;
39994;SDS011;25686;51.908;10.418;2023-06-14T10:25:30;4.07;;;2.03;;
39994;SDS011;25686;51.908;10.418;2023-06-14T10:27:31;3.70;;;1.88;;
39994;SDS011;25686;51.908;10.418;2023-06-14T10:29:32;3.10;;;2.00;;
39994;SDS011;25686;51.908;10.418;2023-06-14T10:31:39;2.60;;;2.00;;
39994;SDS011;25686;51.908;10.418;2023-06-14T10:36:06;3.17;;;1.92;;
39994;SDS011;25686;51.908;10.418;2023-06-14T10:38:11;6.70;;;1.90;;
39994;SDS011;25686;51.908;10.418;2023-06-14T10:40:28;3.08;;;2.00;;
39994;SDS011;25686;51.908;10.418;2023-06-14T10:42:33;6.15;;;2.88;;
39994;SDS011;25686;51.908;10.418;2023-06-14T10:46:59;2.63;;;2.17;;
39994;SDS011;25686;51.908;10.418;2023-06-14T10:48:59;4.50;;;1.95;;
39994;SDS011;25686;51.908;10.418;2023-06-14T10:51:03;4.00;;;2.20;;
39994;SDS011;25686;51.908;10.418;2023-06-14T10:53:21;2.85;;;2.28;;
39994;SDS011;25686;51.908;10.418;2023-06-14T10:55:23;12.73;;;2.30;;
39994;SDS011;25686;51.908;10.418;2023-06-14T10:57:24;4.18;;;2.03;;
39994;SDS011;25686;51.908;10.418;2023-06-14T10:59:25;3.75;;;2.10;;
39994;SDS011;25686;51.908;10.418;2023-06-14T11:01:35;5.25;;;2.30;;
39994;SDS011;25686;51.908;10.418;2023-06-14T11:04:06;2.58;;;2.00;;
39994;SDS011;25686;51.908;10.418;2023-06-14T11:06:01;7.35;;;2.78;;
39994;SDS011;25686;51.908;10.418;2023-06-14T11:12:19;6.50;;;2.63;;
39994;SDS011;25686;51.908;10.418;2023-06-14T11:14:21;3.63;;;2.55;;
39994;SDS011;25686;51.908;10.418;2023-06-14T11:16:22;4.95;;;2.33;;
39994;SDS011;25686;51.908;10.418;2023-06-14T11:18:26;6.18;;;2.60;;
39994;SDS011;25686;51.908;10.418;2023-06-14T11:20:30;6.53;;;2.72;;
39994;SDS011;25686;51.908;10.418;2023-06-14T11:22:38;4.53;;;2.60;;
39994;SDS011;25686;51.908;10.418;2023-06-14T11:24:39;3.55;;;2.65;;
39994;SDS011;25686;51.908;10.418;2023-06-14T11:26:40;3.90;;;2.95;;
39994;SDS011;25686;51.908;10.418;2023-06-14T11:28:41;3.45;;;2.80;;
39994;SDS011;25686;51.908;10.418;2023-06-14T11:30:42;3.88;;;2.60;;
39994;SDS011;25686;51.908;10.418;2023-06-14T11:32:47;5.40;;;2.80;;
39994;SDS011;25686;51.908;10.418;2023-06-14T11:34:48;3.92;;;2.70;;
39994;SDS011;25686;51.908;10.418;2023-06-14T11:36:50;7.07;;;2.95;;
39994;SDS011;25686;51.908;10.418;2023-06-14T11:38:57;8.50;;;3.10;;
39994;SDS011;25686;51.908;10.418;2023-06-14T11:40:59;6.18;;;3.15;;
39994;SDS011;25686;51.908;10.418;2023-06-14T11:43:00;4.18;;;3.15;;
39994;SDS011;25686;51.908;10.418;2023-06-14T11:45:02;8.30;;;3.45;;
39994;SDS011;25686;51.908;10.418;2023-06-14T11:47:05;6.30;;;2.72;;
39994;SDS011;25686;51.908;10.418;2023-06-14T11:49:06;6.40;;;3.13;;
39994;SDS011;25686;51.908;10.418;2023-06-14T11:51:09;8.65;;;3.00;;
39994;SDS011;25686;51.908;10.418;2023-06-14T11:53:11;5.32;;;3.00;;
39994;SDS011;25686;51.908;10.418;2023-06-14T11:55:12;9.15;;;3.05;;
39994;SDS011;25686;51.908;10.418;2023-06-14T11:57:13;4.68;;;3.08;;
39994;SDS011;25686;51.908;10.418;2023-06-14T11:59:14;3.67;;;3.00;;
39994;SDS011;25686;51.908;10.418;2023-06-14T12:01:19;5.60;;;3.15;;
39994;SDS011;25686;51.908;10.418;2023-06-14T12:03:23;5.60;;;3.35;;
39994;SDS011;25686;51.908;10.418;2023-06-14T12:05:25;5.00;;;3.22;;
39994;SDS011;25686;51.908;10.418;2023-06-14T12:07:26;8.07;;;3.50;;
39994;SDS011;25686;51.908;10.418;2023-06-14T12:09:29;8.27;;;3.53;;
39994;SDS011;25686;51.908;10.418;2023-06-14T12:11:34;4.45;;;2.85;;
39994;SDS011;25686;51.908;10.418;2023-06-14T12:13:37;6.55;;;2.80;;
39994;SDS011;25686;51.908;10.418;2023-06-14T12:15:40;6.40;;;3.00;;